createdAt,value
2022-11-19T00:01:27.372Z,9.27
2022-11-19T00:03:54.631Z,9.70
2022-11-19T00:06:26.273Z,8.87
2022-11-19T00:08:53.842Z,8.73
2022-11-19T00:11:41.528Z,9.80
2022-11-19T00:14:13.459Z,9.97
2022-11-19T00:16:41.020Z,9.60
2022-11-19T00:19:08.207Z,9.93
2022-11-19T00:21:35.444Z,10.10
2022-11-19T00:24:02.659Z,9.70
2022-11-19T00:26:29.418Z,11.67
2022-11-19T00:28:56.696Z,10.80
2022-11-19T00:31:23.551Z,10.13
2022-11-19T00:33:50.831Z,12.07
2022-11-19T00:36:18.033Z,10.57
2022-11-19T00:38:45.304Z,11.37
2022-11-19T00:41:12.584Z,11.40
2022-11-19T00:43:49.763Z,12.57
2022-11-19T00:46:21.019Z,10.57
2022-11-19T00:48:48.854Z,12.10
2022-11-19T00:51:17.356Z,11.70
2022-11-19T00:53:44.527Z,11.07
2022-11-19T00:56:13.895Z,12.20
2022-11-19T00:58:41.649Z,11.50
2022-11-19T01:01:09.899Z,12.67
2022-11-19T01:03:38.766Z,12.03
2022-11-19T01:06:06.144Z,11.70
2022-11-19T01:08:32.977Z,10.50
2022-11-19T01:11:08.885Z,12.67
2022-11-19T01:13:36.271Z,11.67
2022-11-19T01:16:17.853Z,11.40
2022-11-19T01:18:47.514Z,12.57
2022-11-19T01:21:14.871Z,11.83
2022-11-19T01:23:43.104Z,12.20
2022-11-19T01:26:11.203Z,13.17
2022-11-19T01:28:38.692Z,11.53
2022-11-19T01:31:20.721Z,12.53
2022-11-19T01:33:47.993Z,11.47
2022-11-19T01:36:18.846Z,12.20
2022-11-19T01:38:50.978Z,12.17
2022-11-19T01:41:27.637Z,12.30
2022-11-19T01:43:54.333Z,13.33
2022-11-19T01:46:23.641Z,12.07
2022-11-19T01:49:13.684Z,11.60
2022-11-19T01:52:00.873Z,12.93
2022-11-19T01:54:41.234Z,10.60
2022-11-19T01:57:13.130Z,10.73
2022-11-19T01:59:40.480Z,10.27
2022-11-19T02:02:07.647Z,11.07
2022-11-19T02:04:36.257Z,11.00
2022-11-19T02:07:03.437Z,12.20
2022-11-19T02:09:30.892Z,10.10
2022-11-19T02:12:06.508Z,9.73
2022-11-19T02:14:55.403Z,10.20
2022-11-19T02:17:50.120Z,9.90
2022-11-19T02:20:41.209Z,8.80
2022-11-19T02:23:46.648Z,8.63
2022-11-19T02:26:19.202Z,7.73
2022-11-19T02:28:54.507Z,8.33
2022-11-19T02:31:39.500Z,7.30
2022-11-19T02:34:16.383Z,8.97
2022-11-19T02:37:01.756Z,8.57
2022-11-19T02:40:00.516Z,7.60
2022-11-19T02:42:38.473Z,7.37
2022-11-19T02:45:17.729Z,6.57
2022-11-19T02:47:48.035Z,6.50
2022-11-19T02:50:26.760Z,5.87
2022-11-19T02:52:53.903Z,5.73
2022-11-19T02:55:22.097Z,5.43
2022-11-19T02:58:10.888Z,4.50
2022-11-19T03:01:08.333Z,4.80
2022-11-19T03:03:54.354Z,5.33
2022-11-19T03:06:25.663Z,5.60
2022-11-19T03:08:52.552Z,6.00
2022-11-19T03:11:26.481Z,4.70
2022-11-19T03:14:27.269Z,4.50
2022-11-19T03:16:59.300Z,4.67
2022-11-19T03:19:44.701Z,4.57
2022-11-19T03:22:23.348Z,4.00
2022-11-19T03:24:50.360Z,4.73
2022-11-19T03:27:25.228Z,4.40
2022-11-19T03:29:56.651Z,4.03
2022-11-19T03:32:28.470Z,4.37
2022-11-19T03:34:59.985Z,4.10
2022-11-19T03:37:28.047Z,3.90
2022-11-19T03:39:58.977Z,3.90
2022-11-19T03:42:27.065Z,3.80
2022-11-19T03:45:10.242Z,2.30
2022-11-19T03:47:39.951Z,2.30
2022-11-19T03:50:18.748Z,2.20
2022-11-19T03:52:45.936Z,1.90
2022-11-19T03:55:12.987Z,1.93
2022-11-19T03:57:40.161Z,1.70
2022-11-19T04:00:08.020Z,2.10
2022-11-19T04:02:35.177Z,1.90
2022-11-19T04:05:02.338Z,1.80
2022-11-19T04:07:29.484Z,1.70
2022-11-19T04:09:56.594Z,2.17
2022-11-19T04:12:25.275Z,2.00
2022-11-19T04:14:52.509Z,2.03
2022-11-19T04:17:19.998Z,2.10
2022-11-19T04:19:47.169Z,1.90
2022-11-19T04:22:14.405Z,2.00
2022-11-19T04:24:41.156Z,2.10
2022-11-19T04:27:08.310Z,2.30
2022-11-19T04:29:35.074Z,2.10
2022-11-19T04:32:02.278Z,2.20
2022-11-19T04:34:29.037Z,2.07
2022-11-19T04:36:56.222Z,2.20
2022-11-19T04:39:23.201Z,2.40
2022-11-19T04:41:50.521Z,2.40
2022-11-19T04:44:17.274Z,2.40
2022-11-19T04:46:44.289Z,2.20
2022-11-19T04:49:11.466Z,2.40
2022-11-19T04:51:38.252Z,2.80
2022-11-19T04:54:05.635Z,2.43
2022-11-19T04:56:32.336Z,2.47
2022-11-19T04:58:59.508Z,2.60
2022-11-19T05:01:26.797Z,3.00
2022-11-19T05:03:53.985Z,3.10
2022-11-19T05:06:21.088Z,2.77
2022-11-19T05:08:47.810Z,3.20
2022-11-19T05:11:14.948Z,3.20
2022-11-19T05:13:42.076Z,2.70
2022-11-19T05:16:08.834Z,2.97
2022-11-19T05:18:36.150Z,3.47
2022-11-19T05:21:03.040Z,3.73
2022-11-19T05:23:29.737Z,3.97
2022-11-19T05:25:56.567Z,4.20
2022-11-19T05:28:37.655Z,4.93
2022-11-19T05:31:06.057Z,4.60
2022-11-19T05:33:34.394Z,5.07
2022-11-19T05:36:01.993Z,5.30
2022-11-19T05:38:29.159Z,4.93
2022-11-19T05:40:55.876Z,5.07
2022-11-19T05:43:22.615Z,4.70
2022-11-19T05:45:49.426Z,5.17
2022-11-19T05:48:16.190Z,6.03
2022-11-19T05:50:43.492Z,6.73
2022-11-19T05:53:10.361Z,6.57
2022-11-19T05:55:37.443Z,6.33
2022-11-19T05:58:04.571Z,7.13
2022-11-19T06:00:31.693Z,6.57
2022-11-19T06:02:58.477Z,7.40
2022-11-19T06:05:25.645Z,7.50
2022-11-19T06:07:52.492Z,7.10
2022-11-19T06:10:19.190Z,7.77
2022-11-19T06:12:46.378Z,8.10
2022-11-19T06:15:14.510Z,8.03
2022-11-19T06:17:41.469Z,8.07
2022-11-19T06:20:10.956Z,7.63
2022-11-19T06:22:38.558Z,9.10
2022-11-19T06:25:05.987Z,8.83
2022-11-19T06:27:33.160Z,8.83
2022-11-19T06:30:00.360Z,8.53
2022-11-19T06:32:27.543Z,9.40
2022-11-19T06:34:54.235Z,8.60
2022-11-19T06:37:21.417Z,8.80
2022-11-19T06:39:48.128Z,9.60
2022-11-19T06:42:33.208Z,9.90
2022-11-19T06:45:00.321Z,9.73
2022-11-19T06:47:27.075Z,9.83
2022-11-19T06:49:54.232Z,10.17
2022-11-19T06:52:21.325Z,10.53
2022-11-19T06:54:48.107Z,10.40
2022-11-19T06:57:15.065Z,11.40
2022-11-19T06:59:42.282Z,10.93
2022-11-19T07:02:11.755Z,11.10
2022-11-19T07:04:39.120Z,11.70
2022-11-19T07:07:06.659Z,12.50
2022-11-19T07:09:33.431Z,12.60
2022-11-19T07:12:00.532Z,12.40
2022-11-19T07:14:27.383Z,11.00
2022-11-19T07:16:54.500Z,11.57
2022-11-19T07:19:21.780Z,13.37
2022-11-19T07:21:49.056Z,12.53
2022-11-19T07:24:17.889Z,12.47
2022-11-19T07:26:44.978Z,12.27
2022-11-19T07:29:13.586Z,12.37
2022-11-19T07:31:40.711Z,12.60
2022-11-19T07:34:09.515Z,11.83
2022-11-19T07:36:36.889Z,12.07
2022-11-19T07:39:05.251Z,12.83
2022-11-19T07:41:51.052Z,12.60
2022-11-19T07:44:18.258Z,12.27
2022-11-19T07:46:45.289Z,12.13
2022-11-19T07:49:12.361Z,12.97
2022-11-19T07:51:39.172Z,20.70
2022-11-19T07:54:06.637Z,14.07
2022-11-19T07:56:33.704Z,14.10
2022-11-19T07:59:01.028Z,14.03
2022-11-19T08:01:27.756Z,30.97
2022-11-19T08:03:56.799Z,13.73
2022-11-19T08:06:25.910Z,16.37
2022-11-19T08:08:52.987Z,12.83
2022-11-19T08:11:19.970Z,11.77
2022-11-19T08:13:47.077Z,14.47
2022-11-19T08:16:35.611Z,13.20
2022-11-19T08:19:09.459Z,12.80
2022-11-19T08:21:39.705Z,13.60
2022-11-19T08:24:06.833Z,12.97
2022-11-19T08:26:33.877Z,13.60
2022-11-19T08:29:00.706Z,12.67
2022-11-19T08:31:27.885Z,13.17
2022-11-19T08:33:54.611Z,12.80
2022-11-19T08:36:21.794Z,12.93
2022-11-19T08:38:48.533Z,11.87
2022-11-19T08:41:33.650Z,13.30
2022-11-19T08:44:02.209Z,11.73
2022-11-19T08:46:29.270Z,13.07
2022-11-19T08:48:56.324Z,11.87
2022-11-19T08:51:23.019Z,12.27
2022-11-19T08:53:52.463Z,11.90
2022-11-19T08:56:20.085Z,11.27
2022-11-19T08:58:47.514Z,11.80
2022-11-19T09:01:16.158Z,11.37
2022-11-19T09:03:43.483Z,11.87
2022-11-19T09:06:10.897Z,11.17
2022-11-19T09:08:38.098Z,11.67
2022-11-19T09:11:11.668Z,10.90
2022-11-19T09:13:39.070Z,10.53
2022-11-19T09:16:06.444Z,10.87
2022-11-19T09:18:33.810Z,10.97
2022-11-19T09:21:00.520Z,10.30
2022-11-19T09:23:27.755Z,10.10
2022-11-19T09:25:59.873Z,10.80
2022-11-19T09:28:28.113Z,11.27
2022-11-19T09:30:59.637Z,11.57
2022-11-19T09:33:26.892Z,11.23
2022-11-19T09:35:53.522Z,11.00
2022-11-19T09:38:20.529Z,10.77
2022-11-19T09:40:51.250Z,10.80
2022-11-19T09:43:18.372Z,11.27
2022-11-19T09:46:03.985Z,10.80
2022-11-19T09:48:39.118Z,12.20
2022-11-19T09:51:16.892Z,9.83
2022-11-19T09:53:54.724Z,10.27
2022-11-19T09:56:33.335Z,10.87
2022-11-19T09:59:00.621Z,10.73
2022-11-19T10:01:28.165Z,10.07
2022-11-19T10:03:55.482Z,10.40
2022-11-19T10:06:23.947Z,10.43
2022-11-19T10:09:12.182Z,10.17
2022-11-19T10:12:00.435Z,9.87
2022-11-19T10:14:39.087Z,9.80
2022-11-19T10:17:45.215Z,10.03
2022-11-19T10:20:28.961Z,9.17
2022-11-19T10:23:12.103Z,9.77
2022-11-19T10:25:47.579Z,9.63
2022-11-19T10:28:30.168Z,9.37
2022-11-19T10:31:11.626Z,9.57
2022-11-19T10:33:52.410Z,9.50
2022-11-19T10:36:31.876Z,9.17
2022-11-19T10:39:01.517Z,9.70
2022-11-19T10:41:52.600Z,9.47
2022-11-19T10:44:57.296Z,9.73
2022-11-19T10:47:48.150Z,8.87
2022-11-19T10:50:26.101Z,9.77
2022-11-19T10:53:14.583Z,9.13
2022-11-19T10:55:51.393Z,9.83
2022-11-19T10:58:29.356Z,9.80
2022-11-19T11:00:59.540Z,9.03
2022-11-19T11:03:52.027Z,8.43
2022-11-19T11:06:19.163Z,8.97
2022-11-19T11:08:52.972Z,9.27
2022-11-19T11:11:50.404Z,9.23
2022-11-19T11:14:40.978Z,9.77
2022-11-19T11:17:20.963Z,9.10
2022-11-19T11:20:05.124Z,8.47
2022-11-19T11:22:32.701Z,8.17
2022-11-19T11:25:05.864Z,8.17
2022-11-19T11:27:35.546Z,8.13
2022-11-19T11:30:11.349Z,8.30
2022-11-19T11:32:39.462Z,8.40
2022-11-19T11:37:37.049Z,8.60
2022-11-19T11:40:05.004Z,8.00
2022-11-19T11:42:33.208Z,8.20
2022-11-19T11:45:01.409Z,8.70
2022-11-19T11:47:31.944Z,8.17
2022-11-19T11:50:07.990Z,8.60
2022-11-19T11:52:42.498Z,8.70
2022-11-19T11:55:24.230Z,8.63
2022-11-19T11:58:02.400Z,8.33
2022-11-19T12:00:40.467Z,8.70
2022-11-19T12:03:13.780Z,8.57
2022-11-19T12:06:01.839Z,8.50
2022-11-19T12:08:43.553Z,8.70
2022-11-19T12:11:54.147Z,8.80
2022-11-19T12:14:44.212Z,8.47
2022-11-19T12:17:26.160Z,9.10
2022-11-19T12:20:17.908Z,8.70
2022-11-19T12:23:03.186Z,8.60
2022-11-19T12:25:51.721Z,8.80
2022-11-19T12:28:24.182Z,9.43
2022-11-19T12:30:51.203Z,8.83
2022-11-19T12:33:20.795Z,8.87
2022-11-19T12:36:08.473Z,9.20
2022-11-19T12:39:10.407Z,8.73
2022-11-19T12:41:54.994Z,9.23
2022-11-19T12:44:45.738Z,8.43
2022-11-19T12:47:49.434Z,9.27
2022-11-19T12:50:22.763Z,9.63
2022-11-19T12:52:52.654Z,9.37
2022-11-19T12:55:33.352Z,8.57
2022-11-19T12:58:00.359Z,9.30
2022-11-19T13:00:30.187Z,8.57
2022-11-19T13:03:05.239Z,8.97
2022-11-19T13:05:47.706Z,9.23
2022-11-19T13:08:33.216Z,9.20
2022-11-19T13:11:20.016Z,8.83
2022-11-19T13:13:58.410Z,9.50
2022-11-19T13:16:28.442Z,9.27
2022-11-19T13:19:08.970Z,9.00
2022-11-19T13:21:45.882Z,9.10
2022-11-19T13:24:30.727Z,9.17
2022-11-19T13:27:04.107Z,9.53
2022-11-19T13:29:44.559Z,9.90
2022-11-19T13:32:17.131Z,8.47
2022-11-19T13:35:20.389Z,9.20
2022-11-19T13:37:58.491Z,9.73
2022-11-19T13:40:40.679Z,9.57
2022-11-19T13:43:34.268Z,8.90
2022-11-19T13:46:15.733Z,8.87
2022-11-19T13:49:01.198Z,9.37
2022-11-19T13:51:38.692Z,9.60
2022-11-19T13:54:08.083Z,9.17
2022-11-19T13:56:47.381Z,9.17
2022-11-19T13:59:31.172Z,9.10
2022-11-19T14:02:12.836Z,8.67
2022-11-19T14:05:11.247Z,8.50
2022-11-19T14:07:46.220Z,8.20
2022-11-19T14:10:33.135Z,8.13
2022-11-19T14:13:00.216Z,8.80
2022-11-19T14:15:45.894Z,8.53
2022-11-19T14:18:31.869Z,8.87
2022-11-19T14:21:42.751Z,8.97
2022-11-19T14:24:42.964Z,9.03
2022-11-19T14:27:26.510Z,8.40
2022-11-19T14:30:17.929Z,8.70
2022-11-19T14:32:50.715Z,8.80
2022-11-19T14:35:26.168Z,8.97
2022-11-19T14:38:25.771Z,8.50
2022-11-19T14:41:08.316Z,9.00
2022-11-19T14:44:08.260Z,8.53
2022-11-19T14:46:37.048Z,9.17
2022-11-19T14:49:07.034Z,8.90
2022-11-19T14:51:40.438Z,8.87
2022-11-19T14:54:16.227Z,9.47
2022-11-19T14:56:47.104Z,8.97
2022-11-19T14:59:16.567Z,8.87
2022-11-19T15:02:00.065Z,8.53
2022-11-19T15:05:01.640Z,8.10
2022-11-19T15:07:39.436Z,8.67
2022-11-19T15:10:14.570Z,8.93
2022-11-19T15:12:44.264Z,8.83
2022-11-19T15:15:19.817Z,8.40
2022-11-19T15:18:01.900Z,8.57
2022-11-19T15:20:46.979Z,8.30
2022-11-19T15:23:25.881Z,8.67
2022-11-19T15:26:01.190Z,8.60
2022-11-19T15:28:49.389Z,8.70
2022-11-19T15:31:21.949Z,8.37
2022-11-19T15:34:48.662Z,8.80
2022-11-19T15:37:21.289Z,8.57
2022-11-19T15:39:52.477Z,8.67
2022-11-19T15:42:25.354Z,8.90
2022-11-19T15:45:02.945Z,9.40
2022-11-19T15:47:39.285Z,9.60
2022-11-19T15:50:11.206Z,8.83
2022-11-19T15:52:37.828Z,9.77
2022-11-19T15:55:23.713Z,8.77
2022-11-19T15:57:55.104Z,8.93
2022-11-19T16:00:23.457Z,29.40
2022-11-19T16:02:52.668Z,19.53
2022-11-19T16:05:30.521Z,9.80
2022-11-19T16:07:59.851Z,9.10
2022-11-19T16:10:26.942Z,8.77
2022-11-19T16:13:20.757Z,9.50
2022-11-19T16:16:13.155Z,8.63
2022-11-19T16:18:47.647Z,9.47
2022-11-19T16:21:36.926Z,9.03
2022-11-19T16:24:25.665Z,9.27
2022-11-19T16:26:56.283Z,9.27
2022-11-19T16:29:26.263Z,10.13
2022-11-19T16:31:56.569Z,9.37
2022-11-19T16:34:25.723Z,10.03
2022-11-19T16:36:53.242Z,9.97
2022-11-19T16:39:25.390Z,10.00
2022-11-19T16:42:15.765Z,10.20
2022-11-19T16:44:48.119Z,10.00
2022-11-19T16:47:50.127Z,10.17
2022-11-19T16:50:32.066Z,10.80
2022-11-19T16:53:03.535Z,10.40
2022-11-19T16:55:36.214Z,10.30
2022-11-19T16:58:13.805Z,9.53
2022-11-19T17:00:45.062Z,9.97
2022-11-19T17:03:20.898Z,9.40
2022-11-19T17:05:49.984Z,10.17
2022-11-19T17:08:21.932Z,9.77
2022-11-19T17:10:49.006Z,9.90
2022-11-19T17:13:16.040Z,10.13
2022-11-19T17:15:50.003Z,9.70
2022-11-19T17:18:18.313Z,10.63
2022-11-19T17:20:46.388Z,10.07
2022-11-19T17:23:22.080Z,9.73
2022-11-19T17:25:56.428Z,10.87
2022-11-19T17:28:37.960Z,10.10
2022-11-19T17:31:17.051Z,10.27
2022-11-19T17:33:58.467Z,10.47
2022-11-19T17:36:28.495Z,11.17
2022-11-19T17:38:55.671Z,10.03
2022-11-19T17:41:44.231Z,10.80
2022-11-19T17:44:35.921Z,10.63
2022-11-19T17:47:20.688Z,11.13
2022-11-19T17:49:49.445Z,10.50
2022-11-19T17:52:28.183Z,11.10
2022-11-19T17:55:02.702Z,10.33
2022-11-19T17:57:29.741Z,10.80
2022-11-19T17:59:56.507Z,10.27
2022-11-19T18:02:24.133Z,10.33
2022-11-19T18:04:51.883Z,11.30
2022-11-19T18:07:18.753Z,10.27
2022-11-19T18:09:46.052Z,11.00
2022-11-19T18:12:15.511Z,10.03
2022-11-19T18:14:42.878Z,10.10
2022-11-19T18:17:14.517Z,10.27
2022-11-19T18:19:46.255Z,10.27
2022-11-19T18:22:19.559Z,10.67
2022-11-19T18:24:48.350Z,10.60
2022-11-19T18:27:15.906Z,10.27
2022-11-19T18:29:42.996Z,10.77
2022-11-19T18:32:15.810Z,10.77
2022-11-19T18:34:43.248Z,10.77
2022-11-19T18:37:10.150Z,10.30
2022-11-19T18:39:37.364Z,10.70
2022-11-19T18:42:04.297Z,10.80
2022-11-19T18:44:34.469Z,10.33
2022-11-19T18:47:10.224Z,10.77
2022-11-19T18:49:37.988Z,10.07
2022-11-19T18:52:07.238Z,10.50
2022-11-19T18:54:34.445Z,10.13
2022-11-19T18:57:01.482Z,10.13
2022-11-19T18:59:29.811Z,9.80
2022-11-19T19:01:56.661Z,9.20
2022-11-19T19:04:24.136Z,8.93
2022-11-19T19:06:51.341Z,10.13
2022-11-19T19:09:21.948Z,9.30
2022-11-19T19:12:13.078Z,9.77
2022-11-19T19:14:40.860Z,9.90
2022-11-19T19:17:07.724Z,9.00
2022-11-19T19:19:35.044Z,9.93
2022-11-19T19:22:02.407Z,9.70
2022-11-19T19:24:29.387Z,10.20
2022-11-19T19:26:56.065Z,10.00
2022-11-19T19:29:23.470Z,10.40
2022-11-19T19:31:50.374Z,10.10
2022-11-19T19:34:17.432Z,9.97
2022-11-19T19:36:47.684Z,9.57
2022-11-19T19:39:18.766Z,9.80
2022-11-19T19:41:45.793Z,11.00
2022-11-19T19:44:12.509Z,10.70
2022-11-19T19:46:39.234Z,11.23
2022-11-19T19:49:06.078Z,10.43
2022-11-19T19:51:32.937Z,10.20
2022-11-19T19:54:00.340Z,10.70
2022-11-19T19:56:31.872Z,10.43
2022-11-19T19:58:59.788Z,10.93
2022-11-19T20:01:32.417Z,10.30
2022-11-19T20:04:04.726Z,10.23
2022-11-19T20:06:31.926Z,10.47
2022-11-19T20:08:59.173Z,9.90
2022-11-19T20:11:26.869Z,11.03
2022-11-19T20:13:55.172Z,10.97
2022-11-19T20:16:24.557Z,10.70
2022-11-19T20:18:52.160Z,11.00
2022-11-19T20:21:23.025Z,10.70
2022-11-19T20:23:50.440Z,10.93
2022-11-19T20:26:22.512Z,10.73
2022-11-19T20:28:55.072Z,11.20
2022-11-19T20:31:22.244Z,11.40
2022-11-19T20:33:54.686Z,11.83
2022-11-19T20:36:23.296Z,11.30
2022-11-19T20:38:50.849Z,11.07
2022-11-19T20:41:38.170Z,11.70
2022-11-19T20:44:21.939Z,11.23
2022-11-19T20:47:00.140Z,11.63
2022-11-19T20:49:32.619Z,11.37
2022-11-19T20:52:02.275Z,11.43
2022-11-19T20:54:29.251Z,11.53
2022-11-19T20:56:56.768Z,11.40
2022-11-19T20:59:26.080Z,10.57
2022-11-19T21:01:54.390Z,10.63
2022-11-19T21:04:21.955Z,11.70
2022-11-19T21:06:53.776Z,11.70
2022-11-19T21:09:21.627Z,11.43
2022-11-19T21:11:49.102Z,10.70
2022-11-19T21:14:15.958Z,10.50
2022-11-19T21:16:43.114Z,11.20
2022-11-19T21:19:10.608Z,11.23
2022-11-19T21:21:37.767Z,11.07
2022-11-19T21:24:04.905Z,10.63
2022-11-19T21:26:32.075Z,11.20
2022-11-19T21:28:59.818Z,10.67
2022-11-19T21:31:38.717Z,11.57
2022-11-19T21:34:14.027Z,10.93
2022-11-19T21:36:41.954Z,11.40
2022-11-19T21:39:10.044Z,10.07
2022-11-19T21:41:37.180Z,10.83
2022-11-19T21:44:04.799Z,11.10
2022-11-19T21:46:31.834Z,11.50
2022-11-19T21:48:58.625Z,11.27
2022-11-19T21:51:25.661Z,11.40
2022-11-19T21:53:56.704Z,11.47
2022-11-19T21:56:24.097Z,11.83
2022-11-19T21:58:51.297Z,11.77
2022-11-19T22:01:18.210Z,10.33
2022-11-19T22:03:45.455Z,11.00
2022-11-19T22:06:12.441Z,11.10
2022-11-19T22:08:41.506Z,10.97
2022-11-19T22:11:28.584Z,11.17
2022-11-19T22:14:06.379Z,11.47
2022-11-19T22:16:36.044Z,11.40
2022-11-19T22:19:03.653Z,10.73
2022-11-19T22:21:30.809Z,11.70
2022-11-19T22:23:58.348Z,11.23
2022-11-19T22:26:25.680Z,11.07
2022-11-19T22:28:52.345Z,10.60
2022-11-19T22:31:19.436Z,11.67
2022-11-19T22:33:49.627Z,10.90
2022-11-19T22:36:16.704Z,11.30
2022-11-19T22:38:43.793Z,10.70
2022-11-19T22:41:13.104Z,11.03
2022-11-19T22:43:40.941Z,11.30
2022-11-19T22:46:09.297Z,11.70
2022-11-19T22:48:36.782Z,11.40
2022-11-19T22:51:08.807Z,11.13
2022-11-19T22:53:36.485Z,11.20
2022-11-19T22:56:04.994Z,11.23
2022-11-19T22:58:32.382Z,11.63
2022-11-19T23:00:59.664Z,11.47
2022-11-19T23:03:26.405Z,11.07
2022-11-19T23:05:54.148Z,11.40
2022-11-19T23:08:21.819Z,11.50
2022-11-19T23:10:48.801Z,11.17
2022-11-19T23:13:31.881Z,11.37
2022-11-19T23:16:09.421Z,12.37
2022-11-19T23:18:39.713Z,11.30
2022-11-19T23:21:09.623Z,11.60
2022-11-19T23:23:37.019Z,11.00
2022-11-19T23:26:06.171Z,11.57
2022-11-19T23:28:34.857Z,11.77
2022-11-19T23:31:06.283Z,11.80
2022-11-19T23:33:33.011Z,10.77
2022-11-19T23:36:06.553Z,11.17
2022-11-19T23:38:35.137Z,11.60
2022-11-19T23:41:02.850Z,11.10
2022-11-19T23:43:30.100Z,12.07
2022-11-19T23:46:08.042Z,11.57
2022-11-19T23:48:35.018Z,11.37
2022-11-19T23:51:07.250Z,12.10
2022-11-19T23:53:34.573Z,12.17
2022-11-19T23:56:01.731Z,12.30
2022-11-19T23:58:28.455Z,12.70
